Time;durP1;ratioP1;P1;durP2;ratioP2;P2;SDS_P1;SDS_P2;PMS_P1;PMS_P2;Temp;Humidity;BMP_temperature;BMP_pressure;BME280_temperature;BME280_humidity;BME280_pressure;Samples;Min_cycle;Max_cycle;Signal;HPM_P1;HPM_P2
2023/06/26 00:01:09;;;;;;;7.75;6.95;;;24.20;47.60;;;;;;5029980;28;20291;-85
2023/06/26 00:03:36;;;;;;;7.32;6.65;;;24.20;47.70;;;;;;5014434;28;20201;-85
2023/06/26 00:06:03;;;;;;;7.15;6.45;;;24.10;47.60;;;;;;5013553;28;20601;-85
2023/06/26 00:08:30;;;;;;;7.53;6.72;;;24.10;47.50;;;;;;5013952;28;20221;-85
2023/06/26 00:10:57;;;;;;;7.78;7.00;;;24.10;47.50;;;;;;5030437;28;20546;-85
2023/06/26 00:13:25;;;;;;;7.93;7.07;;;24.10;47.70;;;;;;5014277;28;20200;-85
2023/06/26 00:15:52;;;;;;;7.65;6.95;;;24.10;47.70;;;;;;5015220;28;20197;-85
2023/06/26 00:18:21;;;;;;;8.05;7.20;;;24.10;47.70;;;;;;5014507;28;20275;-85
2023/06/26 00:20:48;;;;;;;7.65;6.95;;;24.10;47.80;;;;;;5014536;28;20232;-85
2023/06/26 00:23:17;;;;;;;8.13;7.32;;;24.00;47.60;;;;;;5013817;28;20201;-85
2023/06/26 00:25:44;;;;;;;7.95;7.15;;;24.10;47.70;;;;;;5030297;28;20220;-84
2023/06/26 00:28:11;;;;;;;8.05;7.25;;;24.00;47.80;;;;;;5013617;28;20212;-85
2023/06/26 00:30:38;;;;;;;8.00;7.30;;;24.10;47.70;;;;;;5030541;28;20205;-85
2023/06/26 00:33:05;;;;;;;8.02;7.32;;;24.00;47.60;;;;;;5015183;28;20270;-84
2023/06/26 00:35:35;;;;;;;7.25;6.55;;;24.00;47.60;;;;;;5014333;28;20227;-84
2023/06/26 00:38:04;;;;;;;7.32;6.63;;;24.00;47.70;;;;;;5013524;28;20193;-85
2023/06/26 00:40:31;;;;;;;7.25;6.63;;;24.00;48.30;;;;;;5013942;28;20663;-85
2023/06/26 00:42:58;;;;;;;7.85;7.05;;;24.00;47.70;;;;;;5029542;28;20196;-85
2023/06/26 00:45:25;;;;;;;7.38;6.70;;;24.00;47.70;;;;;;5028935;28;20232;-85
2023/06/26 00:47:52;;;;;;;7.55;6.85;;;24.00;47.80;;;;;;5013068;28;20275;-84
2023/06/26 00:50:20;;;;;;;7.45;6.75;;;24.00;47.80;;;;;;5016400;28;20270;-84
2023/06/26 00:52:48;;;;;;;7.50;6.80;;;24.00;47.80;;;;;;5017695;28;20558;-85
2023/06/26 00:55:15;;;;;;;8.10;7.40;;;24.00;47.80;;;;;;5016584;28;20201;-85
2023/06/26 00:57:45;;;;;;;7.30;6.60;;;24.00;47.90;;;;;;5016551;28;20279;-85
2023/06/26 01:00:13;;;;;;;7.85;7.10;;;23.90;47.90;;;;;;5017434;28;20313;-85
2023/06/26 01:02:40;;;;;;;8.02;7.25;;;23.90;47.90;;;;;;5017588;28;20278;-85
2023/06/26 01:05:10;;;;;;;7.50;6.80;;;23.90;47.90;;;;;;5033277;28;20292;-85
2023/06/26 01:07:37;;;;;;;7.88;7.18;;;23.90;48.10;;;;;;5033502;28;20228;-85
2023/06/26 01:10:07;;;;;;;7.40;6.70;;;23.90;48.00;;;;;;5016676;28;20231;-85
2023/06/26 01:12:34;;;;;;;7.75;6.95;;;23.90;47.90;;;;;;5016906;28;20251;-85
2023/06/26 01:15:01;;;;;;;8.27;7.47;;;23.80;47.90;;;;;;5017424;28;20628;-85
2023/06/26 01:17:31;;;;;;;7.30;6.70;;;23.80;48.00;;;;;;5017250;28;20192;-85
2023/06/26 01:19:59;;;;;;;7.57;6.90;;;23.80;48.10;;;;;;5017541;28;20594;-85
2023/06/26 01:22:29;;;;;;;7.88;7.07;;;23.80;48.10;;;;;;5020495;28;20571;-85
2023/06/26 01:25:03;;;;;;;7.60;6.90;;;23.80;48.10;;;;;;5020616;28;20196;-85
2023/06/26 01:27:32;;;;;;;7.55;6.75;;;23.80;48.10;;;;;;5018632;28;20209;-84
2023/06/26 01:30:00;;;;;;;7.90;7.15;;;23.80;48.30;;;;;;5018776;28;20217;-85
2023/06/26 01:32:27;;;;;;;7.38;6.68;;;23.70;48.20;;;;;;5034864;28;20707;-85
2023/06/26 01:34:54;;;;;;;8.05;7.30;;;23.80;48.30;;;;;;5018557;28;20208;-85
2023/06/26 01:37:21;;;;;;;8.07;7.28;;;23.70;48.30;;;;;;5016770;28;20217;-84
2023/06/26 01:39:48;;;;;;;7.82;7.03;;;23.70;48.20;;;;;;5032738;28;20243;-84
2023/06/26 01:42:15;;;;;;;8.15;7.35;;;23.70;48.30;;;;;;5016321;28;20207;-84
2023/06/26 01:44:45;;;;;;;7.93;7.13;;;23.70;48.30;;;;;;5017973;28;20197;-85
2023/06/26 01:47:16;;;;;;;7.70;6.78;;;23.70;48.50;;;;;;5018076;28;20224;-85
2023/06/26 01:49:47;;;;;;;7.78;7.07;;;23.70;48.50;;;;;;5035426;28;20240;-84
2023/06/26 01:52:19;;;;;;;7.88;7.13;;;23.70;48.50;;;;;;5018607;28;20200;-84
2023/06/26 01:54:50;;;;;;;7.88;7.07;;;23.70;48.40;;;;;;5018589;28;20203;-84
2023/06/26 01:57:18;;;;;;;7.97;7.22;;;23.70;48.50;;;;;;5019486;28;20204;-84
2023/06/26 01:59:47;;;;;;;7.47;6.78;;;23.70;48.50;;;;;;5033734;28;20226;-84
2023/06/26 02:02:14;;;;;;;7.55;6.82;;;23.60;48.50;;;;;;5015844;28;20197;-84
2023/06/26 02:04:42;;;;;;;7.85;7.15;;;23.60;48.50;;;;;;5015506;28;20460;-84
2023/06/26 02:07:10;;;;;;;8.07;7.28;;;23.60;48.60;;;;;;5015750;28;20691;-84
2023/06/26 02:09:37;;;;;;;7.40;6.72;;;23.60;48.60;;;;;;5015469;28;20224;-85
2023/06/26 02:12:05;;;;;;;7.88;7.18;;;23.50;48.60;;;;;;5015337;28;20197;-85
2023/06/26 02:14:33;;;;;;;7.65;6.85;;;23.50;48.60;;;;;;5015222;28;20201;-84
2023/06/26 02:17:02;;;;;;;8.35;7.55;;;23.50;49.20;;;;;;5015832;28;20283;-84
2023/06/26 02:19:28;;;;;;;8.27;7.47;;;23.50;48.60;;;;;;5031882;28;20242;-85
2023/06/26 02:21:56;;;;;;;7.63;6.93;;;23.50;48.60;;;;;;5015327;28;20205;-85
2023/06/26 02:24:25;;;;;;;7.28;6.57;;;23.50;48.60;;;;;;5014810;28;20284;-84
2023/06/26 02:26:52;;;;;;;8.02;6.97;;;23.50;48.60;;;;;;5031596;28;20224;-85
2023/06/26 02:29:19;;;;;;;8.07;7.28;;;23.40;48.50;;;;;;5015646;28;20227;-85
2023/06/26 02:31:46;;;;;;;7.45;6.75;;;23.40;48.60;;;;;;5015128;28;20208;-85
2023/06/26 02:34:14;;;;;;;7.28;6.57;;;23.40;48.70;;;;;;5000357;28;20223;-85
2023/06/26 02:36:42;;;;;;;8.38;7.30;;;23.40;48.60;;;;;;5031828;28;20617;-85
2023/06/26 02:39:09;;;;;;;8.75;7.95;;;23.40;48.70;;;;;;5040040;28;20239;-85
2023/06/26 02:41:37;;;;;;;7.72;7.00;;;23.40;48.80;;;;;;5031601;28;20681;-85
2023/06/26 02:44:05;;;;;;;7.68;6.97;;;23.40;48.70;;;;;;5014933;28;20196;-85
2023/06/26 02:46:33;;;;;;;8.35;6.90;;;23.40;48.80;;;;;;5014831;28;20565;-85
2023/06/26 02:49:00;;;;;;;8.27;7.47;;;23.40;48.90;;;;;;5014945;28;20303;-85
2023/06/26 02:51:29;;;;;;;8.00;7.20;;;23.40;49.00;;;;;;5031261;28;20291;-85
2023/06/26 02:53:58;;;;;;;7.97;7.18;;;23.30;48.90;;;;;;5014766;28;20201;-85
2023/06/26 02:56:28;;;;;;;7.97;7.20;;;23.30;49.00;;;;;;5014590;28;20197;-85
2023/06/26 02:58:56;;;;;;;7.90;7.07;;;23.30;48.90;;;;;;5031197;28;20228;-85
2023/06/26 03:01:24;;;;;;;8.07;7.30;;;23.30;49.00;;;;;;5014250;28;20197;-85
2023/06/26 03:03:52;;;;;;;8.05;7.25;;;23.30;49.00;;;;;;5030809;28;20197;-85
2023/06/26 03:06:20;;;;;;;8.10;7.20;;;23.30;49.00;;;;;;5013934;28;20235;-85
2023/06/26 03:08:49;;;;;;;7.78;7.07;;;23.30;49.00;;;;;;5013951;28;20308;-85
2023/06/26 03:11:16;;;;;;;8.07;7.28;;;23.30;49.10;;;;;;5013538;28;20200;-85
2023/06/26 03:13:44;;;;;;;8.63;7.72;;;23.30;49.10;;;;;;5013813;28;20208;-85
2023/06/26 03:16:12;;;;;;;7.97;7.20;;;23.30;49.10;;;;;;5014004;28;20668;-85
2023/06/26 03:18:39;;;;;;;8.85;8.05;;;23.30;49.20;;;;;;5030426;28;20271;-85
2023/06/26 03:21:06;;;;;;;8.00;7.20;;;23.30;49.10;;;;;;5013980;28;20211;-85
2023/06/26 03:23:33;;;;;;;8.18;7.40;;;23.30;49.10;;;;;;5014199;28;20656;-85
2023/06/26 03:26:02;;;;;;;8.30;7.50;;;23.30;49.00;;;;;;5014075;28;20201;-85
2023/06/26 03:28:35;;;;;;;7.75;6.95;;;23.30;48.90;;;;;;5013909;28;20274;-85
2023/06/26 03:31:02;;;;;;;8.25;7.45;;;23.30;48.90;;;;;;5014833;28;20251;-85
2023/06/26 03:33:31;;;;;;;8.00;7.20;;;23.40;48.90;;;;;;5030306;28;20200;-85
2023/06/26 03:36:00;;;;;;;8.32;7.50;;;23.30;48.70;;;;;;5014060;28;20208;-85
2023/06/26 03:38:27;;;;;;;8.18;7.38;;;23.40;48.70;;;;;;5013846;28;20352;-86
2023/06/26 03:40:57;;;;;;;8.32;7.60;;;23.40;48.70;;;;;;5013597;28;20260;-85
2023/06/26 03:43:26;;;;;;;7.90;7.18;;;23.40;48.70;;;;;;5013984;28;20642;-85
2023/06/26 03:46:10;;;;;;;7.97;7.18;;;23.40;48.50;;;;;;5013538;28;20215;-85
2023/06/26 03:48:38;;;;;;;7.75;6.95;;;23.50;48.60;;;;;;5013811;28;20217;-86
2023/06/26 03:51:06;;;;;;;7.78;7.00;;;23.40;48.70;;;;;;5013776;28;20247;-85
2023/06/26 03:53:34;;;;;;;7.80;7.10;;;23.40;48.70;;;;;;5029836;28;20201;-85
2023/06/26 03:56:01;;;;;;;7.75;6.93;;;23.40;48.60;;;;;;5013698;28;20196;-85
2023/06/26 03:58:29;;;;;;;7.47;6.78;;;23.50;49.30;;;;;;5013200;28;20212;-86
2023/06/26 04:00:58;;;;;;;7.55;6.85;;;23.50;48.90;;;;;;5029510;28;20571;-85
2023/06/26 04:03:25;;;;;;;8.32;7.53;;;23.40;48.90;;;;;;5013616;28;20619;-87
2023/06/26 04:05:52;;;;;;;7.97;7.18;;;23.40;48.80;;;;;;5029728;28;20209;-86
2023/06/26 04:08:20;;;;;;;7.72;7.03;;;23.40;48.80;;;;;;5013328;28;20651;-86
2023/06/26 04:10:48;;;;;;;7.60;6.90;;;23.40;48.90;;;;;;5029975;28;20196;-85
2023/06/26 04:13:15;;;;;;;8.20;7.28;;;23.50;49.00;;;;;;5013614;28;20211;-85
2023/06/26 04:15:44;;;;;;;8.23;7.43;;;23.40;49.90;;;;;;5013485;28;20201;-85
2023/06/26 04:18:12;;;;;;;7.75;7.00;;;23.20;50.30;;;;;;5029550;28;20228;-84
2023/06/26 04:20:40;;;;;;;8.57;7.78;;;23.00;50.90;;;;;;5013031;28;20561;-84
2023/06/26 04:23:07;;;;;;;8.07;7.28;;;22.80;51.60;;;;;;5029378;28;20279;-85
2023/06/26 04:25:34;;;;;;;8.10;7.30;;;22.70;52.00;;;;;;4997145;28;20201;-85
2023/06/26 04:28:01;;;;;;;8.70;7.63;;;22.50;52.20;;;;;;5012892;28;20647;-85
2023/06/26 04:30:29;;;;;;;9.15;8.25;;;22.50;52.60;;;;;;5014414;28;20196;-85
2023/06/26 04:32:58;;;;;;;7.90;7.10;;;22.40;52.80;;;;;;5029952;28;20531;-85
2023/06/26 04:35:26;;;;;;;8.68;7.70;;;22.40;52.80;;;;;;5030456;28;20204;-84
2023/06/26 04:37:53;;;;;;;8.73;7.82;;;22.40;53.00;;;;;;5029912;28;20197;-84
2023/06/26 04:40:20;;;;;;;8.65;7.75;;;22.40;53.10;;;;;;5012984;28;20224;-84
2023/06/26 04:42:47;;;;;;;10.23;8.15;;;22.40;53.50;;;;;;5013021;28;20686;-84
2023/06/26 04:45:14;;;;;;;8.65;7.70;;;22.40;53.40;;;;;;5056405;22;20300;-80
2023/06/26 04:47:41;;;;;;;9.77;8.30;;;22.40;53.40;;;;;;5037549;28;20211;-80
2023/06/26 04:50:10;;;;;;;8.73;7.93;;;22.50;53.50;;;;;;5054261;28;20250;-80
2023/06/26 04:52:37;;;;;;;9.20;8.25;;;22.60;53.20;;;;;;5053873;28;20222;-80
2023/06/26 04:55:05;;;;;;;8.63;7.78;;;22.80;52.80;;;;;;5057914;28;20218;-80
2023/06/26 04:57:32;;;;;;;9.05;8.15;;;22.90;52.50;;;;;;5054546;28;20187;-80
2023/06/26 04:59:59;;;;;;;8.88;7.97;;;23.10;51.60;;;;;;5053955;28;20261;-80
2023/06/26 05:02:27;;;;;;;8.63;7.82;;;23.40;50.90;;;;;;5066379;28;20183;-80
2023/06/26 05:04:54;;;;;;;8.90;7.40;;;23.60;50.50;;;;;;5076873;28;20184;-80
2023/06/26 05:07:23;;;;;;;8.55;7.68;;;23.80;50.10;;;;;;5077578;28;20226;-80
2023/06/26 05:09:49;;;;;;;9.27;8.00;;;24.00;49.50;;;;;;5076928;28;20210;-79
2023/06/26 05:12:16;;;;;;;8.38;7.57;;;24.20;49.10;;;;;;5059916;28;20222;-80
2023/06/26 05:14:44;;;;;;;8.15;7.35;;;24.40;48.70;;;;;;5062548;28;20237;-82
2023/06/26 05:17:11;;;;;;;7.57;6.88;;;24.40;48.30;;;;;;5054817;28;20278;-82
2023/06/26 05:19:38;;;;;;;8.45;7.65;;;24.60;47.90;;;;;;5053668;28;20215;-82
2023/06/26 05:22:07;;;;;;;9.32;7.18;;;24.80;47.80;;;;;;5037153;28;20211;-80
2023/06/26 05:24:36;;;;;;;8.02;7.22;;;24.90;47.50;;;;;;5053951;28;20223;-82
2023/06/26 05:27:04;;;;;;;8.20;7.40;;;25.00;47.20;;;;;;5053449;28;20212;-82
2023/06/26 05:29:32;;;;;;;7.93;7.13;;;25.10;47.30;;;;;;5054098;28;20215;-82
2023/06/26 05:32:00;;;;;;;8.05;7.25;;;25.20;47.00;;;;;;5054370;28;20251;-82
2023/06/26 05:34:28;;;;;;;8.70;7.88;;;25.30;46.90;;;;;;5053594;28;20294;-82
2023/06/26 05:36:58;;;;;;;7.50;6.80;;;25.40;46.80;;;;;;5056879;28;20241;-82
2023/06/26 05:39:26;;;;;;;8.02;7.22;;;25.40;46.60;;;;;;5056460;28;20223;-83
2023/06/26 05:41:55;;;;;;;8.90;7.38;;;25.50;46.30;;;;;;5056308;28;20195;-82
2023/06/26 05:44:22;;;;;;;7.78;7.00;;;25.60;46.10;;;;;;5057010;28;20217;-82
2023/06/26 05:46:50;;;;;;;7.78;7.05;;;25.80;46.10;;;;;;5056350;28;20195;-82
2023/06/26 05:49:17;;;;;;;7.57;6.85;;;25.80;45.80;;;;;;5039748;28;20226;-82
2023/06/26 05:51:45;;;;;;;8.18;7.20;;;25.90;45.60;;;;;;5056243;28;20568;-82
2023/06/26 05:54:13;;;;;;;8.20;7.45;;;26.00;45.40;;;;;;5056124;28;20684;-82
2023/06/26 05:56:41;;;;;;;7.38;6.68;;;26.10;45.20;;;;;;5056404;28;20195;-82
2023/06/26 05:59:10;;;;;;;8.20;7.40;;;26.20;45.70;;;;;;5039887;28;20686;-82
2023/06/26 06:01:37;;;;;;;7.63;6.93;;;26.30;44.90;;;;;;5057026;28;20204;-82
2023/06/26 06:04:05;;;;;;;7.53;6.82;;;26.40;44.80;;;;;;5040696;28;20282;-82
2023/06/26 06:06:32;;;;;;;7.88;7.05;;;26.50;44.60;;;;;;5056294;28;20199;-82
2023/06/26 06:08:59;;;;;;;7.72;6.97;;;26.50;44.40;;;;;;5057636;28;20219;-82
2023/06/26 06:11:26;;;;;;;7.82;6.85;;;26.60;44.20;;;;;;5039273;28;20191;-82
2023/06/26 06:13:53;;;;;;;7.53;6.82;;;26.70;44.00;;;;;;5056099;28;20653;-82
2023/06/26 06:16:22;;;;;;;7.65;6.78;;;26.80;43.90;;;;;;5056404;28;20206;-83
2023/06/26 06:18:49;;;;;;;6.72;6.13;;;26.80;43.70;;;;;;5057250;28;20298;-82
2023/06/26 06:21:16;;;;;;;7.68;6.93;;;26.90;43.50;;;;;;5043205;28;20214;-82
2023/06/26 06:23:43;;;;;;;6.85;6.25;;;27.00;43.40;;;;;;5056687;28;20561;-82
2023/06/26 06:26:10;;;;;;;7.68;6.60;;;27.10;43.30;;;;;;5056043;28;20203;-82
2023/06/26 06:28:37;;;;;;;7.70;6.88;;;27.10;43.10;;;;;;5055772;28;20276;-82
2023/06/26 06:31:04;;;;;;;7.35;6.65;;;27.20;43.00;;;;;;5056852;28;20198;-82
2023/06/26 06:33:34;;;;;;;7.38;6.70;;;27.20;42.80;;;;;;5055814;28;20207;-82
2023/06/26 06:36:01;;;;;;;7.20;6.50;;;27.30;42.80;;;;;;5056284;28;20199;-82
2023/06/26 06:38:28;;;;;;;7.28;6.57;;;27.40;42.60;;;;;;5056611;28;20219;-82
2023/06/26 06:40:55;;;;;;;7.38;6.65;;;27.50;42.50;;;;;;5055773;28;20199;-82
2023/06/26 06:43:22;;;;;;;6.88;6.18;;;27.50;42.40;;;;;;5039338;28;20696;-82
2023/06/26 06:45:50;;;;;;;7.32;6.68;;;27.60;42.20;;;;;;5055006;28;20211;-82
2023/06/26 06:48:17;;;;;;;7.20;6.50;;;27.60;42.20;;;;;;5038532;28;20268;-82
2023/06/26 06:50:45;;;;;;;7.30;6.60;;;27.70;42.10;;;;;;5055751;28;20194;-82
2023/06/26 06:53:12;;;;;;;7.15;6.45;;;27.70;41.90;;;;;;5055308;28;20610;-82
2023/06/26 06:55:40;;;;;;;6.90;6.28;;;27.80;41.90;;;;;;5056178;28;20195;-83
2023/06/26 06:58:07;;;;;;;6.80;6.20;;;27.80;41.80;;;;;;5039885;28;20257;-82
2023/06/26 07:00:34;;;;;;;7.32;6.63;;;27.90;41.70;;;;;;5056528;28;20221;-82
2023/06/26 07:03:01;;;;;;;7.15;6.45;;;27.90;41.60;;;;;;5055823;28;20198;-82
2023/06/26 07:05:28;;;;;;;7.53;6.80;;;28.00;41.40;;;;;;5057648;28;20187;-82
2023/06/26 07:08:00;;;;;;;7.47;6.78;;;28.00;41.40;;;;;;5055490;28;20222;-82
2023/06/26 07:10:27;;;;;;;6.85;5.97;;;28.10;41.40;;;;;;5055515;28;20205;-82
2023/06/26 07:12:55;;;;;;;6.72;6.13;;;28.10;41.20;;;;;;5055456;28;20615;-82
2023/06/26 07:15:23;;;;;;;6.93;6.32;;;28.20;41.20;;;;;;5055399;28;20195;-82
2023/06/26 07:17:50;;;;;;;7.00;6.38;;;28.20;41.10;;;;;;5056877;28;20198;-82
2023/06/26 07:20:18;;;;;;;7.07;6.38;;;28.20;40.90;;;;;;5056071;28;20215;-82
2023/06/26 07:22:45;;;;;;;6.85;6.25;;;28.30;40.90;;;;;;5055985;28;20688;-82
2023/06/26 07:25:14;;;;;;;6.60;6.00;;;28.30;40.90;;;;;;5055897;28;20241;-82
2023/06/26 07:27:42;;;;;;;7.00;6.30;;;28.30;40.80;;;;;;5055614;28;20275;-82
2023/06/26 07:30:10;;;;;;;7.03;6.43;;;28.40;40.80;;;;;;5055238;28;20218;-82
2023/06/26 07:32:37;;;;;;;6.78;6.18;;;28.40;40.60;;;;;;5055667;28;20198;-82
2023/06/26 07:35:05;;;;;;;6.60;6.00;;;28.50;40.60;;;;;;5055050;28;20195;-82
2023/06/26 07:37:32;;;;;;;6.97;6.28;;;28.50;40.50;;;;;;5055019;28;20206;-82
2023/06/26 07:39:59;;;;;;;6.90;6.30;;;28.50;40.40;;;;;;5055013;28;20218;-83
2023/06/26 07:42:28;;;;;;;6.72;6.13;;;28.60;40.40;;;;;;5054542;28;20202;-82
2023/06/26 07:44:55;;;;;;;6.53;5.93;;;28.60;40.30;;;;;;5054480;28;20641;-82
2023/06/26 07:47:23;;;;;;;6.15;5.63;;;28.60;40.20;;;;;;5054539;28;20183;-82
2023/06/26 07:49:50;;;;;;;6.85;6.25;;;28.60;40.10;;;;;;5054485;28;20222;-82
2023/06/26 07:52:19;;;;;;;6.82;6.13;;;28.70;40.20;;;;;;5054851;28;20266;-82
2023/06/26 07:54:46;;;;;;;6.38;5.78;;;28.70;40.10;;;;;;5054320;28;20657;-82
2023/06/26 07:57:14;;;;;;;6.90;6.20;;;28.70;40.10;;;;;;5054129;28;20570;-82
2023/06/26 07:59:42;;;;;;;6.68;6.07;;;28.70;40.10;;;;;;5038009;28;20219;-82
2023/06/26 08:02:10;;;;;;;6.47;5.88;;;28.70;40.10;;;;;;5054317;28;20262;-82
2023/06/26 08:04:38;;;;;;;6.63;6.03;;;28.70;40.10;;;;;;5054634;28;20190;-82
2023/06/26 08:07:05;;;;;;;6.25;5.72;;;28.80;40.00;;;;;;5054161;28;20657;-82
2023/06/26 08:09:33;;;;;;;6.68;6.07;;;28.80;40.00;;;;;;5054092;28;20237;-82
2023/06/26 08:12:00;;;;;;;6.63;5.93;;;28.80;40.00;;;;;;5054148;28;20285;-82
2023/06/26 08:14:27;;;;;;;6.18;5.68;;;28.80;40.60;;;;;;5054709;28;20668;-82
2023/06/26 08:16:55;;;;;;;6.10;5.60;;;28.80;40.00;;;;;;5053899;28;20199;-82
2023/06/26 08:19:23;;;;;;;6.88;6.18;;;28.80;40.00;;;;;;5054003;28;20214;-82
2023/06/26 08:21:50;;;;;;;6.10;5.60;;;28.80;39.90;;;;;;5053902;28;20613;-82
2023/06/26 08:24:18;;;;;;;6.05;5.55;;;28.90;39.90;;;;;;5053380;28;20205;-82
2023/06/26 08:26:46;;;;;;;6.15;5.65;;;28.90;39.90;;;;;;5053112;28;20202;-82
2023/06/26 08:29:13;;;;;;;6.30;5.72;;;28.90;39.90;;;;;;5053339;28;20222;-82
2023/06/26 08:31:40;;;;;;;5.70;5.22;;;28.90;39.90;;;;;;5052989;28;20206;-82
2023/06/26 08:34:09;;;;;;;5.63;5.22;;;29.00;39.80;;;;;;5052958;28;20202;-82
2023/06/26 08:36:36;;;;;;;6.53;5.93;;;29.00;39.70;;;;;;5053425;28;20646;-82
2023/06/26 08:39:04;;;;;;;6.40;5.80;;;29.00;39.70;;;;;;5052935;28;20207;-82
2023/06/26 08:41:32;;;;;;;6.10;5.60;;;29.00;39.60;;;;;;5054495;28;20650;-82
2023/06/26 08:43:59;;;;;;;5.35;4.95;;;29.10;40.20;;;;;;5041715;28;20201;-82
2023/06/26 08:46:27;;;;;;;6.45;5.85;;;29.10;39.50;;;;;;5056529;28;20240;-83
2023/06/26 08:48:57;;;;;;;6.18;5.63;;;29.10;39.50;;;;;;5056298;28;20229;-82
2023/06/26 08:51:28;;;;;;;5.80;5.30;;;29.10;39.40;;;;;;5053408;28;20622;-82
2023/06/26 08:53:58;;;;;;;5.95;5.35;;;29.10;39.40;;;;;;5053333;28;20190;-82
2023/06/26 08:56:25;;;;;;;6.32;5.72;;;29.10;39.40;;;;;;5054183;28;20233;-82
2023/06/26 08:58:52;;;;;;;6.07;5.55;;;29.20;39.40;;;;;;5053869;28;20218;-82
2023/06/26 09:01:20;;;;;;;6.20;5.70;;;29.20;39.30;;;;;;5055509;28;20193;-82
2023/06/26 09:03:47;;;;;;;6.18;5.68;;;29.20;39.30;;;;;;5053564;28;20199;-82
2023/06/26 09:06:15;;;;;;;6.35;5.75;;;29.20;39.30;;;;;;5054631;28;20195;-82
2023/06/26 09:08:44;;;;;;;6.65;5.78;;;29.30;39.30;;;;;;5054158;28;20226;-82
2023/06/26 09:11:11;;;;;;;5.53;5.03;;;29.30;39.30;;;;;;5056685;28;20217;-82
2023/06/26 09:13:38;;;;;;;5.53;5.03;;;29.30;39.30;;;;;;5057828;28;20203;-82
2023/06/26 09:16:07;;;;;;;5.93;5.38;;;29.30;39.20;;;;;;5057465;28;20198;-82
2023/06/26 09:18:34;;;;;;;5.75;5.20;;;29.30;39.20;;;;;;5056724;28;20215;-82
2023/06/26 09:21:05;;;;;;;5.97;5.47;;;29.30;39.20;;;;;;5056791;28;20199;-82
2023/06/26 09:23:32;;;;;;;5.68;5.18;;;29.30;39.20;;;;;;5057070;28;20252;-82
2023/06/26 09:26:02;;;;;;;5.80;5.30;;;29.30;39.20;;;;;;5057119;28;20204;-82
2023/06/26 09:28:30;;;;;;;5.93;5.43;;;29.30;39.30;;;;;;5040720;28;20238;-82
2023/06/26 09:31:02;;;;;;;5.82;4.93;;;29.30;39.40;;;;;;5057172;28;20248;-82
2023/06/26 09:33:29;;;;;;;5.63;5.20;;;29.20;39.50;;;;;;5056896;28;20194;-82
2023/06/26 09:35:56;;;;;;;6.03;5.53;;;29.10;39.80;;;;;;5056472;28;20203;-82
2023/06/26 09:38:24;;;;;;;5.55;5.05;;;29.00;40.00;;;;;;5056978;28;20676;-82
2023/06/26 09:40:50;;;;;;;6.07;5.47;;;29.00;40.20;;;;;;5057041;28;20240;-82
2023/06/26 09:43:20;;;;;;;5.68;5.18;;;28.90;40.10;;;;;;5056372;28;20194;-82
2023/06/26 09:45:46;;;;;;;5.53;5.03;;;29.00;40.20;;;;;;5056472;28;20214;-82
2023/06/26 09:48:14;;;;;;;5.28;4.88;;;28.90;40.20;;;;;;5056435;28;20222;-82
2023/06/26 09:50:43;;;;;;;5.93;5.43;;;28.90;40.40;;;;;;5056947;28;20209;-82
2023/06/26 09:53:10;;;;;;;5.72;5.18;;;28.80;40.50;;;;;;5057679;28;20202;-82
2023/06/26 09:55:38;;;;;;;5.50;5.00;;;28.70;40.60;;;;;;5057474;28;20198;-82
2023/06/26 09:58:05;;;;;;;5.15;4.75;;;28.70;40.80;;;;;;5056873;28;20199;-82
2023/06/26 10:00:34;;;;;;;5.22;4.72;;;28.70;40.90;;;;;;5056958;28;20293;-82
2023/06/26 10:03:02;;;;;;;5.80;5.20;;;28.70;40.80;;;;;;5057239;28;20235;-82
2023/06/26 10:05:29;;;;;;;5.60;5.10;;;28.70;40.90;;;;;;5056078;28;20268;-82
2023/06/26 10:07:56;;;;;;;5.30;4.90;;;28.60;40.90;;;;;;5056735;28;20202;-82
2023/06/26 10:10:24;;;;;;;5.50;5.03;;;28.60;41.00;;;;;;5056465;28;20204;-82
2023/06/26 10:12:55;;;;;;;5.50;5.00;;;28.50;41.20;;;;;;5056194;28;20205;-82
2023/06/26 10:15:22;;;;;;;5.40;4.90;;;28.40;41.30;;;;;;5040471;28;20614;-82
2023/06/26 10:17:51;;;;;;;5.53;5.13;;;28.40;41.50;;;;;;5056549;28;20199;-83
2023/06/26 10:20:18;;;;;;;5.18;4.68;;;28.30;41.60;;;;;;5056581;28;20218;-82
2023/06/26 10:22:46;;;;;;;5.15;4.75;;;28.30;41.70;;;;;;5056920;28;20277;-82
2023/06/26 10:25:17;;;;;;;5.35;4.88;;;28.30;41.80;;;;;;5056828;28;20194;-81
2023/06/26 10:27:47;;;;;;;5.55;5.05;;;28.20;41.70;;;;;;5040150;28;20263;-81
2023/06/26 10:30:17;;;;;;;5.25;4.85;;;28.20;41.70;;;;;;5040048;28;20269;-81
2023/06/26 10:32:44;;;;;;;5.70;5.20;;;28.30;41.80;;;;;;5057163;28;20647;-81
2023/06/26 10:35:12;;;;;;;5.65;5.18;;;28.30;41.80;;;;;;5055748;28;20252;-82
2023/06/26 10:37:44;;;;;;;5.55;5.00;;;28.30;41.90;;;;;;5055765;28;20658;-81
2023/06/26 10:40:11;;;;;;;5.47;4.97;;;28.20;41.80;;;;;;5039193;28;20249;-81
2023/06/26 10:42:39;;;;;;;5.22;4.82;;;28.20;42.00;;;;;;5055131;28;20226;-81
2023/06/26 10:45:14;;;;;;;5.45;4.95;;;28.10;42.20;;;;;;5055243;28;20218;-81
2023/06/26 10:47:42;;;;;;;5.25;4.85;;;28.10;42.30;;;;;;5055720;28;20194;-82
2023/06/26 10:50:21;;;;;;;5.43;4.93;;;28.10;42.50;;;;;;5054638;28;20223;-82
2023/06/26 10:53:08;;;;;;;5.90;5.40;;;28.00;42.50;;;;;;5055261;28;20194;-82
2023/06/26 10:55:36;;;;;;;5.45;4.95;;;27.90;42.50;;;;;;5055215;28;20190;-82
2023/06/26 10:58:03;;;;;;;5.50;4.88;;;27.90;42.80;;;;;;5055345;28;20257;-82
2023/06/26 11:00:31;;;;;;;4.88;4.47;;;27.80;42.80;;;;;;5039288;28;20195;-82
2023/06/26 11:03:00;;;;;;;4.82;4.43;;;27.80;42.80;;;;;;5023617;28;20589;-82
2023/06/26 11:05:30;;;;;;;5.30;4.90;;;27.80;42.90;;;;;;5056720;28;20237;-82
2023/06/26 11:08:04;;;;;;;5.07;4.68;;;27.80;43.00;;;;;;5055596;28;20653;-82
2023/06/26 11:10:31;;;;;;;5.03;4.63;;;27.80;42.90;;;;;;5039043;28;20705;-82
2023/06/26 11:12:59;;;;;;;4.97;4.57;;;27.80;42.90;;;;;;5039487;28;20195;-82
2023/06/26 11:15:27;;;;;;;4.47;4.15;;;27.80;42.80;;;;;;5055168;28;20195;-82
2023/06/26 11:17:54;;;;;;;5.40;4.90;;;27.90;43.50;;;;;;5055871;28;20248;-82
2023/06/26 11:20:25;;;;;;;5.10;4.60;;;27.90;42.70;;;;;;5054872;28;20302;-82
2023/06/26 11:22:54;;;;;;;5.00;4.60;;;27.90;42.80;;;;;;5054325;28;20198;-82
2023/06/26 11:25:21;;;;;;;5.40;4.90;;;27.90;42.70;;;;;;5055376;28;20194;-82
2023/06/26 11:27:49;;;;;;;5.05;4.55;;;27.90;42.70;;;;;;5054800;28;20585;-82
2023/06/26 11:30:25;;;;;;;5.30;4.90;;;27.90;42.70;;;;;;5037878;28;20226;-82
2023/06/26 11:32:54;;;;;;;5.30;4.80;;;27.90;42.80;;;;;;5037948;28;20193;-82
2023/06/26 11:35:30;;;;;;;5.03;4.63;;;27.90;42.70;;;;;;5054937;28;20271;-82
2023/06/26 11:38:00;;;;;;;5.07;4.68;;;27.90;42.80;;;;;;5055668;28;20186;-82
2023/06/26 11:40:31;;;;;;;4.70;4.30;;;27.90;42.80;;;;;;5054837;28;20209;-82
2023/06/26 11:42:59;;;;;;;4.85;4.45;;;27.90;42.90;;;;;;5054009;28;20256;-81
2023/06/26 11:45:26;;;;;;;4.75;4.38;;;27.90;42.90;;;;;;5054466;28;20213;-82
2023/06/26 11:47:53;;;;;;;4.80;4.40;;;27.90;42.90;;;;;;5054110;28;20203;-82
2023/06/26 11:50:21;;;;;;;5.22;4.78;;;27.90;42.80;;;;;;5054016;28;20699;-82
2023/06/26 11:52:54;;;;;;;4.50;4.20;;;27.90;43.00;;;;;;5054310;28;20206;-82
2023/06/26 11:55:23;;;;;;;4.93;4.53;;;27.90;43.00;;;;;;5054761;28;20195;-82
2023/06/26 11:57:51;;;;;;;4.78;4.38;;;27.90;43.00;;;;;;5054683;28;20209;-82
2023/06/26 12:00:19;;;;;;;5.43;4.93;;;27.90;43.10;;;;;;5053751;28;20310;-81
2023/06/26 12:02:46;;;;;;;5.47;4.97;;;27.90;43.10;;;;;;5053874;28;20210;-82
2023/06/26 12:05:13;;;;;;;5.40;4.47;;;27.90;43.20;;;;;;5053594;28;20254;-82
2023/06/26 12:07:40;;;;;;;5.03;4.53;;;27.90;43.20;;;;;;5053963;28;20568;-82
2023/06/26 12:10:09;;;;;;;4.97;4.50;;;27.90;43.20;;;;;;5053830;28;20215;-82
2023/06/26 12:12:38;;;;;;;4.70;4.30;;;27.80;43.20;;;;;;5054064;28;20195;-82
2023/06/26 12:15:07;;;;;;;4.38;3.97;;;27.90;43.20;;;;;;5056060;28;20240;-82
2023/06/26 12:17:34;;;;;;;4.75;4.35;;;27.90;43.20;;;;;;5058425;28;20286;-82
2023/06/26 12:20:05;;;;;;;4.95;4.55;;;27.90;43.20;;;;;;5055211;28;20218;-81
2023/06/26 12:22:35;;;;;;;4.57;4.20;;;27.90;43.20;;;;;;5054149;28;20197;-82
2023/06/26 12:25:02;;;;;;;4.70;4.30;;;27.90;43.20;;;;;;5055048;28;20297;-82
2023/06/26 12:27:29;;;;;;;5.00;4.60;;;27.90;43.30;;;;;;5054190;28;20201;-82
2023/06/26 12:29:58;;;;;;;4.90;4.50;;;27.90;43.40;;;;;;5053853;28;20223;-82
2023/06/26 12:32:25;;;;;;;4.82;4.43;;;27.90;43.40;;;;;;5053715;28;20198;-81
2023/06/26 12:34:53;;;;;;;4.90;4.50;;;27.90;43.40;;;;;;5053859;28;20194;-81
2023/06/26 12:37:21;;;;;;;4.90;4.50;;;27.90;43.40;;;;;;5053760;28;20199;-81
2023/06/26 12:39:49;;;;;;;4.90;4.40;;;27.90;43.40;;;;;;5057699;28;20257;-82
2023/06/26 12:42:17;;;;;;;4.53;4.13;;;27.90;43.50;;;;;;5058708;28;20268;-81
2023/06/26 12:44:44;;;;;;;4.47;4.07;;;27.80;43.50;;;;;;5060967;28;20544;-81
2023/06/26 12:47:14;;;;;;;4.93;4.53;;;27.80;43.60;;;;;;5063184;28;20556;-82
2023/06/26 12:49:42;;;;;;;4.80;4.40;;;27.80;43.60;;;;;;5062560;28;20226;-81
2023/06/26 12:52:10;;;;;;;4.65;4.25;;;27.80;43.60;;;;;;5059160;28;20217;-81